sensor_id;sensor_type;location;lat;lon;timestamp;P1;durP1;ratioP1;P2;durP2;ratioP2
52708;SDS011;38606;52.986;6.980;2023-06-14T04:09:41;4.18;;;2.35;;
52708;SDS011;38606;52.986;6.980;2023-06-14T04:12:08;4.43;;;2.38;;
52708;SDS011;38606;52.986;6.980;2023-06-14T04:14:36;8.93;;;2.80;;
52708;SDS011;38606;52.986;6.980;2023-06-14T04:17:02;5.97;;;2.33;;
52708;SDS011;38606;52.986;6.980;2023-06-14T04:19:28;5.05;;;2.65;;
52708;SDS011;38606;52.986;6.980;2023-06-14T04:21:54;4.97;;;2.38;;
52708;SDS011;38606;52.986;6.980;2023-06-14T04:24:20;7.95;;;2.75;;
52708;SDS011;38606;52.986;6.980;2023-06-14T04:26:45;3.05;;;2.30;;
52708;SDS011;38606;52.986;6.980;2023-06-14T04:29:15;5.53;;;2.65;;
52708;SDS011;38606;52.986;6.980;2023-06-14T04:31:42;5.07;;;2.42;;
52708;SDS011;38606;52.986;6.980;2023-06-14T04:34:09;5.40;;;2.80;;
52708;SDS011;38606;52.986;6.980;2023-06-14T04:36:41;7.32;;;2.80;;
52708;SDS011;38606;52.986;6.980;2023-06-14T04:39:17;9.15;;;2.70;;
52708;SDS011;38606;52.986;6.980;2023-06-14T04:41:44;6.50;;;3.05;;
52708;SDS011;38606;52.986;6.980;2023-06-14T04:44:10;7.47;;;3.10;;
52708;SDS011;38606;52.986;6.980;2023-06-14T04:46:38;5.70;;;3.10;;
52708;SDS011;38606;52.986;6.980;2023-06-14T04:49:13;8.38;;;3.25;;
52708;SDS011;38606;52.986;6.980;2023-06-14T04:51:43;5.80;;;3.13;;
52708;SDS011;38606;52.986;6.980;2023-06-14T04:54:10;4.80;;;2.72;;
52708;SDS011;38606;52.986;6.980;2023-06-14T04:56:38;7.30;;;3.50;;
52708;SDS011;38606;52.986;6.980;2023-06-14T04:59:05;7.68;;;2.97;;
52708;SDS011;38606;52.986;6.980;2023-06-14T05:01:31;5.88;;;2.90;;
52708;SDS011;38606;52.986;6.980;2023-06-14T05:03:58;4.97;;;3.40;;
52708;SDS011;38606;52.986;6.980;2023-06-14T05:06:24;5.35;;;3.42;;
52708;SDS011;38606;52.986;6.980;2023-06-14T05:08:52;8.38;;;2.95;;
52708;SDS011;38606;52.986;6.980;2023-06-14T05:11:19;8.73;;;2.70;;
52708;SDS011;38606;52.986;6.980;2023-06-14T05:13:45;6.20;;;2.80;;
52708;SDS011;38606;52.986;6.980;2023-06-14T05:16:11;8.32;;;2.67;;
52708;SDS011;38606;52.986;6.980;2023-06-14T05:18:37;7.95;;;3.05;;
52708;SDS011;38606;52.986;6.980;2023-06-14T05:21:05;9.40;;;3.67;;
52708;SDS011;38606;52.986;6.980;2023-06-14T05:23:31;7.68;;;3.03;;
52708;SDS011;38606;52.986;6.980;2023-06-14T05:25:57;9.15;;;2.72;;
52708;SDS011;38606;52.986;6.980;2023-06-14T05:28:23;6.82;;;2.70;;
52708;SDS011;38606;52.986;6.980;2023-06-14T05:30:49;6.63;;;2.95;;
52708;SDS011;38606;52.986;6.980;2023-06-14T05:33:15;7.00;;;2.97;;
52708;SDS011;38606;52.986;6.980;2023-06-14T05:35:40;7.82;;;3.22;;
52708;SDS011;38606;52.986;6.980;2023-06-14T05:38:06;6.80;;;2.90;;
52708;SDS011;38606;52.986;6.980;2023-06-14T05:40:32;7.18;;;3.03;;
52708;SDS011;38606;52.986;6.980;2023-06-14T05:42:58;8.13;;;3.10;;
52708;SDS011;38606;52.986;6.980;2023-06-14T05:45:24;6.93;;;3.13;;
52708;SDS011;38606;52.986;6.980;2023-06-14T05:47:50;11.18;;;2.85;;
52708;SDS011;38606;52.986;6.980;2023-06-14T05:50:16;7.20;;;3.00;;
52708;SDS011;38606;52.986;6.980;2023-06-14T05:52:42;7.45;;;3.30;;
52708;SDS011;38606;52.986;6.980;2023-06-14T05:55:08;5.93;;;2.55;;
52708;SDS011;38606;52.986;6.980;2023-06-14T05:57:34;4.10;;;2.55;;
52708;SDS011;38606;52.986;6.980;2023-06-14T06:00:00;6.15;;;3.63;;
52708;SDS011;38606;52.986;6.980;2023-06-14T06:02:26;7.93;;;2.90;;
52708;SDS011;38606;52.986;6.980;2023-06-14T06:04:52;5.53;;;2.80;;
52708;SDS011;38606;52.986;6.980;2023-06-14T06:07:18;4.97;;;2.72;;
52708;SDS011;38606;52.986;6.980;2023-06-14T06:09:43;5.72;;;2.40;;
52708;SDS011;38606;52.986;6.980;2023-06-14T06:12:09;6.13;;;3.33;;
52708;SDS011;38606;52.986;6.980;2023-06-14T06:14:35;5.50;;;2.53;;
52708;SDS011;38606;52.986;6.980;2023-06-14T06:17:01;6.57;;;2.50;;
52708;SDS011;38606;52.986;6.980;2023-06-14T06:19:26;5.75;;;2.70;;
52708;SDS011;38606;52.986;6.980;2023-06-14T06:21:52;4.70;;;2.83;;
52708;SDS011;38606;52.986;6.980;2023-06-14T06:24:18;4.28;;;2.20;;
52708;SDS011;38606;52.986;6.980;2023-06-14T06:26:43;5.18;;;2.17;;
52708;SDS011;38606;52.986;6.980;2023-06-14T06:29:09;4.93;;;2.22;;
52708;SDS011;38606;52.986;6.980;2023-06-14T06:31:35;9.18;;;2.40;;
52708;SDS011;38606;52.986;6.980;2023-06-14T06:34:01;10.85;;;2.20;;
52708;SDS011;38606;52.986;6.980;2023-06-14T06:36:26;4.72;;;2.60;;
52708;SDS011;38606;52.986;6.980;2023-06-14T06:38:52;5.45;;;2.33;;
52708;SDS011;38606;52.986;6.980;2023-06-14T06:41:18;3.22;;;2.20;;
52708;SDS011;38606;52.986;6.980;2023-06-14T06:43:44;4.82;;;2.13;;
52708;SDS011;38606;52.986;6.980;2023-06-14T06:46:09;3.17;;;2.40;;
52708;SDS011;38606;52.986;6.980;2023-06-14T06:48:35;6.88;;;2.03;;
52708;SDS011;38606;52.986;6.980;2023-06-14T06:51:01;4.38;;;2.10;;
52708;SDS011;38606;52.986;6.980;2023-06-14T06:53:26;5.75;;;2.28;;
52708;SDS011;38606;52.986;6.980;2023-06-14T06:55:52;6.35;;;2.20;;
52708;SDS011;38606;52.986;6.980;2023-06-14T06:58:18;5.65;;;2.20;;
52708;SDS011;38606;52.986;6.980;2023-06-14T07:00:43;6.15;;;2.20;;
52708;SDS011;38606;52.986;6.980;2023-06-14T07:03:09;4.05;;;2.17;;
52708;SDS011;38606;52.986;6.980;2023-06-14T07:05:35;2.35;;;1.92;;
52708;SDS011;38606;52.986;6.980;2023-06-14T07:08:01;3.22;;;2.00;;
52708;SDS011;38606;52.986;6.980;2023-06-14T07:10:26;4.10;;;2.15;;
52708;SDS011;38606;52.986;6.980;2023-06-14T07:12:52;5.30;;;2.13;;
52708;SDS011;38606;52.986;6.980;2023-06-14T07:15:18;9.48;;;2.50;;
52708;SDS011;38606;52.986;6.980;2023-06-14T07:17:43;5.60;;;2.05;;
52708;SDS011;38606;52.986;6.980;2023-06-14T07:20:09;5.82;;;2.22;;
52708;SDS011;38606;52.986;6.980;2023-06-14T07:22:42;5.53;;;2.20;;
52708;SDS011;38606;52.986;6.980;2023-06-14T07:25:09;2.83;;;1.80;;
52708;SDS011;38606;52.986;6.980;2023-06-14T07:27:37;3.28;;;1.95;;
52708;SDS011;38606;52.986;6.980;2023-06-14T07:30:03;4.28;;;1.90;;
52708;SDS011;38606;52.986;6.980;2023-06-14T07:32:29;2.70;;;2.10;;
52708;SDS011;38606;52.986;6.980;2023-06-14T07:34:55;7.10;;;1.98;;
52708;SDS011;38606;52.986;6.980;2023-06-14T07:37:21;4.43;;;1.90;;
52708;SDS011;38606;52.986;6.980;2023-06-14T07:39:46;5.43;;;1.80;;
52708;SDS011;38606;52.986;6.980;2023-06-14T07:42:12;2.60;;;1.95;;
52708;SDS011;38606;52.986;6.980;2023-06-14T07:44:38;6.00;;;2.30;;
52708;SDS011;38606;52.986;6.980;2023-06-14T07:47:04;3.50;;;2.53;;
52708;SDS011;38606;52.986;6.980;2023-06-14T07:49:29;3.90;;;2.17;;
52708;SDS011;38606;52.986;6.980;2023-06-14T07:51:55;4.15;;;1.90;;
52708;SDS011;38606;52.986;6.980;2023-06-14T07:54:21;5.10;;;2.05;;
52708;SDS011;38606;52.986;6.980;2023-06-14T07:56:51;4.35;;;2.03;;
52708;SDS011;38606;52.986;6.980;2023-06-14T07:59:17;6.13;;;2.05;;
52708;SDS011;38606;52.986;6.980;2023-06-14T08:01:43;4.13;;;1.60;;
52708;SDS011;38606;52.986;6.980;2023-06-14T08:04:13;8.18;;;2.05;;
52708;SDS011;38606;52.986;6.980;2023-06-14T08:06:40;3.63;;;1.70;;
52708;SDS011;38606;52.986;6.980;2023-06-14T08:09:09;4.22;;;1.70;;
52708;SDS011;38606;52.986;6.980;2023-06-14T08:11:36;4.70;;;1.88;;
52708;SDS011;38606;52.986;6.980;2023-06-14T08:14:01;4.95;;;1.90;;
52708;SDS011;38606;52.986;6.980;2023-06-14T08:16:27;6.80;;;2.15;;
52708;SDS011;38606;52.986;6.980;2023-06-14T08:18:53;6.10;;;1.80;;
52708;SDS011;38606;52.986;6.980;2023-06-14T08:21:19;6.00;;;1.90;;
52708;SDS011;38606;52.986;6.980;2023-06-14T08:23:45;4.70;;;1.90;;
52708;SDS011;38606;52.986;6.980;2023-06-14T08:26:11;2.60;;;1.80;;
52708;SDS011;38606;52.986;6.980;2023-06-14T08:28:37;9.77;;;1.80;;
52708;SDS011;38606;52.986;6.980;2023-06-14T08:31:02;3.78;;;2.00;;
52708;SDS011;38606;52.986;6.980;2023-06-14T08:33:28;5.22;;;1.98;;
52708;SDS011;38606;52.986;6.980;2023-06-14T08:35:54;7.88;;;2.17;;
52708;SDS011;38606;52.986;6.980;2023-06-14T08:38:20;6.97;;;1.90;;
52708;SDS011;38606;52.986;6.980;2023-06-14T08:40:47;7.28;;;1.63;;
52708;SDS011;38606;52.986;6.980;2023-06-14T08:43:17;3.65;;;1.88;;
52708;SDS011;38606;52.986;6.980;2023-06-14T08:45:44;4.93;;;1.70;;
52708;SDS011;38606;52.986;6.980;2023-06-14T08:48:13;5.35;;;1.70;;
52708;SDS011;38606;52.986;6.980;2023-06-14T08:50:42;4.18;;;1.70;;
52708;SDS011;38606;52.986;6.980;2023-06-14T08:53:11;3.05;;;1.83;;
52708;SDS011;38606;52.986;6.980;2023-06-14T08:55:44;2.50;;;1.60;;
52708;SDS011;38606;52.986;6.980;2023-06-14T08:58:10;1.85;;;1.75;;
52708;SDS011;38606;52.986;6.980;2023-06-14T09:00:40;4.93;;;1.83;;
52708;SDS011;38606;52.986;6.980;2023-06-14T09:03:07;4.78;;;1.63;;
52708;SDS011;38606;52.986;6.980;2023-06-14T09:05:38;6.60;;;2.13;;
52708;SDS011;38606;52.986;6.980;2023-06-14T09:08:04;2.75;;;1.60;;
52708;SDS011;38606;52.986;6.980;2023-06-14T09:10:30;4.65;;;2.03;;
52708;SDS011;38606;52.986;6.980;2023-06-14T09:12:58;5.57;;;1.88;;
52708;SDS011;38606;52.986;6.980;2023-06-14T09:15:26;3.63;;;1.63;;
52708;SDS011;38606;52.986;6.980;2023-06-14T09:17:51;3.10;;;1.58;;
52708;SDS011;38606;52.986;6.980;2023-06-14T09:20:18;4.22;;;2.03;;
52708;SDS011;38606;52.986;6.980;2023-06-14T09:22:44;3.15;;;1.73;;
52708;SDS011;38606;52.986;6.980;2023-06-14T09:25:10;2.92;;;1.60;;
52708;SDS011;38606;52.986;6.980;2023-06-14T09:27:40;4.03;;;1.80;;
52708;SDS011;38606;52.986;6.980;2023-06-14T09:30:08;6.50;;;1.63;;
52708;SDS011;38606;52.986;6.980;2023-06-14T09:32:39;9.55;;;1.90;;
52708;SDS011;38606;52.986;6.980;2023-06-14T09:35:08;2.95;;;1.55;;
52708;SDS011;38606;52.986;6.980;2023-06-14T09:37:34;6.80;;;1.45;;
52708;SDS011;38606;52.986;6.980;2023-06-14T09:40:03;4.30;;;1.20;;
52708;SDS011;38606;52.986;6.980;2023-06-14T09:42:29;1.80;;;1.17;;
52708;SDS011;38606;52.986;6.980;2023-06-14T09:44:56;7.50;;;1.27;;
52708;SDS011;38606;52.986;6.980;2023-06-14T09:47:22;2.83;;;1.35;;
52708;SDS011;38606;52.986;6.980;2023-06-14T09:49:49;3.03;;;1.60;;
52708;SDS011;38606;52.986;6.980;2023-06-14T09:52:19;3.47;;;1.35;;
52708;SDS011;38606;52.986;6.980;2023-06-14T09:54:45;2.97;;;1.20;;
52708;SDS011;38606;52.986;6.980;2023-06-14T09:57:13;3.25;;;1.17;;
52708;SDS011;38606;52.986;6.980;2023-06-14T09:59:46;4.88;;;1.75;;
52708;SDS011;38606;52.986;6.980;2023-06-14T10:02:21;1.58;;;1.10;;
52708;SDS011;38606;52.986;6.980;2023-06-14T10:04:50;4.65;;;1.50;;
52708;SDS011;38606;52.986;6.980;2023-06-14T10:07:23;2.35;;;1.25;;
52708;SDS011;38606;52.986;6.980;2023-06-14T10:09:52;1.73;;;1.30;;
52708;SDS011;38606;52.986;6.980;2023-06-14T10:12:18;3.33;;;1.33;;
52708;SDS011;38606;52.986;6.980;2023-06-14T10:14:49;4.72;;;1.10;;
52708;SDS011;38606;52.986;6.980;2023-06-14T10:17:25;1.88;;;1.30;;
52708;SDS011;38606;52.986;6.980;2023-06-14T10:20:11;3.00;;;1.30;;
52708;SDS011;38606;52.986;6.980;2023-06-14T10:23:29;3.70;;;1.50;;
52708;SDS011;38606;52.986;6.980;2023-06-14T10:25:56;2.95;;;1.40;;
52708;SDS011;38606;52.986;6.980;2023-06-14T10:28:22;4.07;;;1.50;;
52708;SDS011;38606;52.986;6.980;2023-06-14T10:31:02;3.42;;;1.20;;
52708;SDS011;38606;52.986;6.980;2023-06-14T10:33:32;4.53;;;1.50;;
52708;SDS011;38606;52.986;6.980;2023-06-14T10:38:46;6.43;;;1.30;;
52708;SDS011;38606;52.986;6.980;2023-06-14T10:41:27;4.95;;;1.13;;
52708;SDS011;38606;52.986;6.980;2023-06-14T10:46:38;4.70;;;1.50;;
52708;SDS011;38606;52.986;6.980;2023-06-14T10:49:05;5.85;;;1.40;;
52708;SDS011;38606;52.986;6.980;2023-06-14T10:51:52;2.60;;;1.17;;
52708;SDS011;38606;52.986;6.980;2023-06-14T10:54:21;1.52;;;1.30;;
52708;SDS011;38606;52.986;6.980;2023-06-14T10:56:49;4.22;;;1.48;;
52708;SDS011;38606;52.986;6.980;2023-06-14T10:59:19;6.15;;;1.52;;
52708;SDS011;38606;52.986;6.980;2023-06-14T11:01:51;2.13;;;1.33;;
52708;SDS011;38606;52.986;6.980;2023-06-14T11:04:48;3.55;;;1.42;;
52708;SDS011;38606;52.986;6.980;2023-06-14T11:10:22;3.30;;;1.38;;
52708;SDS011;38606;52.986;6.980;2023-06-14T11:13:01;4.00;;;1.20;;
52708;SDS011;38606;52.986;6.980;2023-06-14T11:15:31;3.25;;;1.40;;
52708;SDS011;38606;52.986;6.980;2023-06-14T11:20:31;5.97;;;1.23;;
52708;SDS011;38606;52.986;6.980;2023-06-14T11:22:58;2.95;;;1.40;;
52708;SDS011;38606;52.986;6.980;2023-06-14T11:25:25;5.05;;;2.08;;
52708;SDS011;38606;52.986;6.980;2023-06-14T11:27:53;4.75;;;1.40;;
52708;SDS011;38606;52.986;6.980;2023-06-14T11:30:19;6.50;;;1.33;;
52708;SDS011;38606;52.986;6.980;2023-06-14T11:32:48;3.15;;;1.25;;
52708;SDS011;38606;52.986;6.980;2023-06-14T11:35:18;2.72;;;1.30;;
52708;SDS011;38606;52.986;6.980;2023-06-14T11:37:48;2.40;;;1.17;;
52708;SDS011;38606;52.986;6.980;2023-06-14T11:40:17;2.72;;;1.30;;
52708;SDS011;38606;52.986;6.980;2023-06-14T11:42:43;4.50;;;1.63;;
52708;SDS011;38606;52.986;6.980;2023-06-14T11:45:09;4.57;;;1.63;;
52708;SDS011;38606;52.986;6.980;2023-06-14T11:47:37;4.18;;;1.42;;
52708;SDS011;38606;52.986;6.980;2023-06-14T11:50:05;3.30;;;1.30;;
52708;SDS011;38606;52.986;6.980;2023-06-14T11:52:32;5.63;;;1.25;;
52708;SDS011;38606;52.986;6.980;2023-06-14T11:54:58;4.90;;;1.48;;
52708;SDS011;38606;52.986;6.980;2023-06-14T11:57:24;2.80;;;1.40;;
52708;SDS011;38606;52.986;6.980;2023-06-14T11:59:50;4.25;;;1.40;;
52708;SDS011;38606;52.986;6.980;2023-06-14T12:02:16;4.03;;;1.33;;
52708;SDS011;38606;52.986;6.980;2023-06-14T12:04:43;4.78;;;1.50;;
52708;SDS011;38606;52.986;6.980;2023-06-14T12:07:12;5.03;;;1.77;;
52708;SDS011;38606;52.986;6.980;2023-06-14T12:12:16;2.55;;;1.15;;
52708;SDS011;38606;52.986;6.980;2023-06-14T12:14:42;3.50;;;1.50;;
52708;SDS011;38606;52.986;6.980;2023-06-14T12:17:08;3.30;;;1.48;;
52708;SDS011;38606;52.986;6.980;2023-06-14T12:19:41;1.60;;;1.48;;
52708;SDS011;38606;52.986;6.980;2023-06-14T12:22:09;3.65;;;1.25;;
52708;SDS011;38606;52.986;6.980;2023-06-14T12:24:35;3.40;;;1.50;;
52708;SDS011;38606;52.986;6.980;2023-06-14T12:27:01;1.60;;;1.20;;
52708;SDS011;38606;52.986;6.980;2023-06-14T12:29:30;3.85;;;1.30;;
52708;SDS011;38606;52.986;6.980;2023-06-14T12:31:56;1.27;;;0.98;;
52708;SDS011;38606;52.986;6.980;2023-06-14T12:34:23;3.65;;;1.30;;
52708;SDS011;38606;52.986;6.980;2023-06-14T12:36:55;4.28;;;1.25;;
52708;SDS011;38606;52.986;6.980;2023-06-14T12:39:23;3.30;;;1.60;;
52708;SDS011;38606;52.986;6.980;2023-06-14T12:41:49;2.42;;;1.08;;
52708;SDS011;38606;52.986;6.980;2023-06-14T12:44:15;1.73;;;1.50;;
52708;SDS011;38606;52.986;6.980;2023-06-14T12:46:41;3.78;;;1.60;;
52708;SDS011;38606;52.986;6.980;2023-06-14T12:49:09;2.78;;;1.35;;
52708;SDS011;38606;52.986;6.980;2023-06-14T12:51:38;1.98;;;1.40;;
52708;SDS011;38606;52.986;6.980;2023-06-14T12:54:05;3.80;;;1.13;;
52708;SDS011;38606;52.986;6.980;2023-06-14T12:56:31;5.20;;;1.40;;
52708;SDS011;38606;52.986;6.980;2023-06-14T12:58:57;3.10;;;1.30;;
52708;SDS011;38606;52.986;6.980;2023-06-14T13:01:23;1.73;;;1.00;;
52708;SDS011;38606;52.986;6.980;2023-06-14T13:03:49;2.42;;;1.27;;
52708;SDS011;38606;52.986;6.980;2023-06-14T13:06:16;2.60;;;1.30;;
52708;SDS011;38606;52.986;6.980;2023-06-14T13:08:43;2.90;;;1.30;;
52708;SDS011;38606;52.986;6.980;2023-06-14T13:11:08;2.95;;;1.50;;
52708;SDS011;38606;52.986;6.980;2023-06-14T13:13:34;9.18;;;1.70;;
52708;SDS011;38606;52.986;6.980;2023-06-14T13:16:00;1.88;;;1.50;;
52708;SDS011;38606;52.986;6.980;2023-06-14T13:18:26;2.83;;;1.63;;
52708;SDS011;38606;52.986;6.980;2023-06-14T13:20:51;3.35;;;1.40;;
52708;SDS011;38606;52.986;6.980;2023-06-14T13:23:17;2.47;;;1.20;;
52708;SDS011;38606;52.986;6.980;2023-06-14T13:25:43;3.03;;;1.40;;
52708;SDS011;38606;52.986;6.980;2023-06-14T13:28:09;4.28;;;1.42;;
52708;SDS011;38606;52.986;6.980;2023-06-14T13:30:35;2.17;;;1.20;;
52708;SDS011;38606;52.986;6.980;2023-06-14T13:33:02;1.92;;;1.40;;
52708;SDS011;38606;52.986;6.980;2023-06-14T13:35:27;5.68;;;1.75;;
52708;SDS011;38606;52.986;6.980;2023-06-14T13:37:53;2.63;;;1.50;;
52708;SDS011;38606;52.986;6.980;2023-06-14T13:40:19;1.60;;;1.40;;
52708;SDS011;38606;52.986;6.980;2023-06-14T13:42:46;1.70;;;1.35;;
52708;SDS011;38606;52.986;6.980;2023-06-14T13:45:11;3.05;;;1.40;;
52708;SDS011;38606;52.986;6.980;2023-06-14T13:47:38;5.40;;;1.40;;
52708;SDS011;38606;52.986;6.980;2023-06-14T13:50:04;1.60;;;1.15;;
52708;SDS011;38606;52.986;6.980;2023-06-14T13:52:30;2.95;;;1.55;;
52708;SDS011;38606;52.986;6.980;2023-06-14T13:54:56;2.60;;;1.30;;
52708;SDS011;38606;52.986;6.980;2023-06-14T13:57:22;4.20;;;1.42;;
52708;SDS011;38606;52.986;6.980;2023-06-14T13:59:48;4.60;;;1.35;;
52708;SDS011;38606;52.986;6.980;2023-06-14T14:02:14;5.53;;;1.55;;
52708;SDS011;38606;52.986;6.980;2023-06-14T14:04:40;1.85;;;1.45;;
52708;SDS011;38606;52.986;6.980;2023-06-14T14:07:06;5.32;;;1.40;;
52708;SDS011;38606;52.986;6.980;2023-06-14T14:09:33;3.03;;;1.33;;
52708;SDS011;38606;52.986;6.980;2023-06-14T14:12:02;1.63;;;1.48;;
52708;SDS011;38606;52.986;6.980;2023-06-14T14:14:29;3.03;;;1.45;;
52708;SDS011;38606;52.986;6.980;2023-06-14T14:16:57;2.65;;;1.63;;
52708;SDS011;38606;52.986;6.980;2023-06-14T14:19:23;3.28;;;1.52;;
52708;SDS011;38606;52.986;6.980;2023-06-14T14:21:49;6.40;;;1.50;;
52708;SDS011;38606;52.986;6.980;2023-06-14T14:24:15;2.50;;;1.35;;
52708;SDS011;38606;52.986;6.980;2023-06-14T14:26:41;4.20;;;1.45;;
52708;SDS011;38606;52.986;6.980;2023-06-14T14:29:07;4.95;;;1.70;;
52708;SDS011;38606;52.986;6.980;2023-06-14T14:31:36;2.85;;;1.33;;
52708;SDS011;38606;52.986;6.980;2023-06-14T14:34:02;2.88;;;1.65;;
52708;SDS011;38606;52.986;6.980;2023-06-14T14:36:28;3.05;;;1.30;;
52708;SDS011;38606;52.986;6.980;2023-06-14T14:38:53;5.45;;;1.40;;
52708;SDS011;38606;52.986;6.980;2023-06-14T14:41:19;2.13;;;1.58;;
52708;SDS011;38606;52.986;6.980;2023-06-14T14:43:45;5.40;;;1.60;;
52708;SDS011;38606;52.986;6.980;2023-06-14T14:46:11;3.88;;;1.35;;
52708;SDS011;38606;52.986;6.980;2023-06-14T14:48:36;1.40;;;1.30;;
52708;SDS011;38606;52.986;6.980;2023-06-14T14:51:02;2.92;;;1.48;;
52708;SDS011;38606;52.986;6.980;2023-06-14T14:53:28;3.15;;;1.42;;
52708;SDS011;38606;52.986;6.980;2023-06-14T14:55:54;2.67;;;1.60;;
52708;SDS011;38606;52.986;6.980;2023-06-14T14:58:20;3.60;;;1.75;;
52708;SDS011;38606;52.986;6.980;2023-06-14T15:00:46;3.78;;;1.65;;
52708;SDS011;38606;52.986;6.980;2023-06-14T15:03:12;2.20;;;1.50;;
52708;SDS011;38606;52.986;6.980;2023-06-14T15:05:39;8.35;;;1.80;;
52708;SDS011;38606;52.986;6.980;2023-06-14T15:08:05;2.03;;;1.42;;
52708;SDS011;38606;52.986;6.980;2023-06-14T15:10:40;4.38;;;1.90;;
52708;SDS011;38606;52.986;6.980;2023-06-14T15:13:09;3.42;;;1.73;;
52708;SDS011;38606;52.986;6.980;2023-06-14T15:15:36;3.45;;;1.65;;
52708;SDS011;38606;52.986;6.980;2023-06-14T15:18:02;3.08;;;1.95;;
52708;SDS011;38606;52.986;6.980;2023-06-14T15:20:28;6.45;;;1.60;;
52708;SDS011;38606;52.986;6.980;2023-06-14T15:22:54;3.97;;;1.98;;
52708;SDS011;38606;52.986;6.980;2023-06-14T15:25:29;5.00;;;1.90;;
52708;SDS011;38606;52.986;6.980;2023-06-14T15:27:56;5.05;;;1.80;;
52708;SDS011;38606;52.986;6.980;2023-06-14T15:30:22;4.40;;;1.80;;
52708;SDS011;38606;52.986;6.980;2023-06-14T15:32:48;3.42;;;1.52;;
52708;SDS011;38606;52.986;6.980;2023-06-14T15:35:16;1.90;;;1.60;;
52708;SDS011;38606;52.986;6.980;2023-06-14T15:37:43;3.40;;;2.00;;
52708;SDS011;38606;52.986;6.980;2023-06-14T15:40:09;4.72;;;1.83;;
52708;SDS011;38606;52.986;6.980;2023-06-14T15:42:35;6.47;;;2.13;;
52708;SDS011;38606;52.986;6.980;2023-06-14T15:45:01;2.00;;;1.80;;
52708;SDS011;38606;52.986;6.980;2023-06-14T15:47:26;4.15;;;1.63;;
52708;SDS011;38606;52.986;6.980;2023-06-14T15:49:52;4.82;;;2.30;;
52708;SDS011;38606;52.986;6.980;2023-06-14T15:52:18;4.22;;;1.90;;
52708;SDS011;38606;52.986;6.980;2023-06-14T15:54:43;2.65;;;1.48;;
52708;SDS011;38606;52.986;6.980;2023-06-14T15:57:09;4.18;;;1.88;;
52708;SDS011;38606;52.986;6.980;2023-06-14T15:59:36;5.50;;;1.83;;
52708;SDS011;38606;52.986;6.980;2023-06-14T16:02:02;3.35;;;1.95;;
52708;SDS011;38606;52.986;6.980;2023-06-14T16:04:28;2.30;;;1.70;;
52708;SDS011;38606;52.986;6.980;2023-06-14T16:06:56;3.45;;;2.00;;
52708;SDS011;38606;52.986;6.980;2023-06-14T16:09:22;2.42;;;1.88;;
52708;SDS011;38606;52.986;6.980;2023-06-14T16:11:48;3.83;;;1.98;;
52708;SDS011;38606;52.986;6.980;2023-06-14T16:14:14;11.00;;;1.90;;
52708;SDS011;38606;52.986;6.980;2023-06-14T16:16:39;5.32;;;2.10;;
52708;SDS011;38606;52.986;6.980;2023-06-14T16:19:05;5.18;;;2.00;;
52708;SDS011;38606;52.986;6.980;2023-06-14T16:21:31;2.85;;;1.90;;
52708;SDS011;38606;52.986;6.980;2023-06-14T16:24:00;4.13;;;1.77;;
52708;SDS011;38606;52.986;6.980;2023-06-14T16:26:26;6.00;;;1.60;;
52708;SDS011;38606;52.986;6.980;2023-06-14T16:28:52;6.82;;;2.10;;
52708;SDS011;38606;52.986;6.980;2023-06-14T16:31:18;3.75;;;2.13;;
52708;SDS011;38606;52.986;6.980;2023-06-14T16:33:44;3.17;;;1.95;;
52708;SDS011;38606;52.986;6.980;2023-06-14T16:36:11;3.90;;;2.40;;
52708;SDS011;38606;52.986;6.980;2023-06-14T16:38:38;3.33;;;1.75;;
52708;SDS011;38606;52.986;6.980;2023-06-14T16:41:03;4.28;;;2.00;;
52708;SDS011;38606;52.986;6.980;2023-06-14T16:43:29;3.85;;;1.95;;
52708;SDS011;38606;52.986;6.980;2023-06-14T16:45:55;5.47;;;1.80;;
52708;SDS011;38606;52.986;6.980;2023-06-14T16:48:21;4.13;;;1.73;;
52708;SDS011;38606;52.986;6.980;2023-06-14T16:50:46;2.08;;;1.80;;
52708;SDS011;38606;52.986;6.980;2023-06-14T16:53:12;4.35;;;2.03;;
52708;SDS011;38606;52.986;6.980;2023-06-14T16:55:38;6.72;;;2.45;;
52708;SDS011;38606;52.986;6.980;2023-06-14T16:58:04;4.10;;;2.28;;
52708;SDS011;38606;52.986;6.980;2023-06-14T17:00:29;3.92;;;2.08;;
52708;SDS011;38606;52.986;6.980;2023-06-14T17:02:55;7.95;;;2.08;;
52708;SDS011;38606;52.986;6.980;2023-06-14T17:05:21;3.80;;;2.33;;
52708;SDS011;38606;52.986;6.980;2023-06-14T17:07:47;4.97;;;2.00;;
52708;SDS011;38606;52.986;6.980;2023-06-14T17:10:13;4.53;;;1.92;;
52708;SDS011;38606;52.986;6.980;2023-06-14T17:12:38;6.10;;;2.35;;
52708;SDS011;38606;52.986;6.980;2023-06-14T17:15:06;4.35;;;2.28;;
52708;SDS011;38606;52.986;6.980;2023-06-14T17:17:32;3.47;;;2.05;;
52708;SDS011;38606;52.986;6.980;2023-06-14T17:19:58;4.32;;;2.20;;
52708;SDS011;38606;52.986;6.980;2023-06-14T17:22:23;5.60;;;2.40;;
52708;SDS011;38606;52.986;6.980;2023-06-14T17:24:49;3.10;;;2.08;;
52708;SDS011;38606;52.986;6.980;2023-06-14T17:27:15;4.93;;;2.15;;
52708;SDS011;38606;52.986;6.980;2023-06-14T17:29:41;3.47;;;2.15;;
52708;SDS011;38606;52.986;6.980;2023-06-14T17:32:07;2.35;;;1.90;;
52708;SDS011;38606;52.986;6.980;2023-06-14T17:34:33;7.68;;;2.30;;
52708;SDS011;38606;52.986;6.980;2023-06-14T17:36:59;9.68;;;2.28;;
52708;SDS011;38606;52.986;6.980;2023-06-14T17:39:25;5.03;;;2.13;;
52708;SDS011;38606;52.986;6.980;2023-06-14T17:41:51;4.13;;;2.05;;
52708;SDS011;38606;52.986;6.980;2023-06-14T17:44:17;5.78;;;2.00;;
52708;SDS011;38606;52.986;6.980;2023-06-14T17:46:42;2.40;;;1.90;;
52708;SDS011;38606;52.986;6.980;2023-06-14T17:49:09;4.97;;;2.38;;
52708;SDS011;38606;52.986;6.980;2023-06-14T17:51:35;7.35;;;2.80;;
52708;SDS011;38606;52.986;6.980;2023-06-14T17:54:01;7.03;;;2.53;;
52708;SDS011;38606;52.986;6.980;2023-06-14T17:56:27;8.02;;;2.28;;
52708;SDS011;38606;52.986;6.980;2023-06-14T17:58:52;3.70;;;2.17;;
52708;SDS011;38606;52.986;6.980;2023-06-14T18:01:21;7.25;;;2.58;;
52708;SDS011;38606;52.986;6.980;2023-06-14T18:03:47;7.38;;;1.95;;
52708;SDS011;38606;52.986;6.980;2023-06-14T18:06:13;6.38;;;2.22;;
52708;SDS011;38606;52.986;6.980;2023-06-14T18:08:38;5.75;;;2.40;;
52708;SDS011;38606;52.986;6.980;2023-06-14T18:11:05;6.28;;;2.17;;
52708;SDS011;38606;52.986;6.980;2023-06-14T18:13:32;4.93;;;2.08;;
52708;SDS011;38606;52.986;6.980;2023-06-14T18:15:57;5.95;;;2.30;;
52708;SDS011;38606;52.986;6.980;2023-06-14T18:18:23;3.78;;;2.10;;
52708;SDS011;38606;52.986;6.980;2023-06-14T18:20:49;7.70;;;2.25;;
52708;SDS011;38606;52.986;6.980;2023-06-14T18:23:15;5.22;;;2.20;;
52708;SDS011;38606;52.986;6.980;2023-06-14T18:25:40;4.80;;;2.40;;
52708;SDS011;38606;52.986;6.980;2023-06-14T18:28:06;3.97;;;2.00;;
52708;SDS011;38606;52.986;6.980;2023-06-14T18:30:32;4.68;;;2.17;;
52708;SDS011;38606;52.986;6.980;2023-06-14T18:32:58;4.60;;;2.28;;
52708;SDS011;38606;52.986;6.980;2023-06-14T18:35:24;3.25;;;2.33;;
52708;SDS011;38606;52.986;6.980;2023-06-14T18:37:50;4.82;;;2.10;;
52708;SDS011;38606;52.986;6.980;2023-06-14T18:40:16;3.25;;;2.30;;
52708;SDS011;38606;52.986;6.980;2023-06-14T18:42:42;3.92;;;2.60;;
52708;SDS011;38606;52.986;6.980;2023-06-14T18:45:08;4.03;;;2.20;;
52708;SDS011;38606;52.986;6.980;2023-06-14T18:47:34;6.75;;;2.20;;
52708;SDS011;38606;52.986;6.980;2023-06-14T18:50:00;4.15;;;2.00;;
52708;SDS011;38606;52.986;6.980;2023-06-14T18:52:26;3.25;;;2.10;;
52708;SDS011;38606;52.986;6.980;2023-06-14T18:54:52;4.47;;;2.60;;
52708;SDS011;38606;52.986;6.980;2023-06-14T18:57:17;5.95;;;2.35;;
52708;SDS011;38606;52.986;6.980;2023-06-14T18:59:45;5.72;;;2.60;;
52708;SDS011;38606;52.986;6.980;2023-06-14T19:02:11;2.95;;;1.95;;
52708;SDS011;38606;52.986;6.980;2023-06-14T19:04:37;4.05;;;2.20;;
52708;SDS011;38606;52.986;6.980;2023-06-14T19:07:03;4.93;;;2.05;;
52708;SDS011;38606;52.986;6.980;2023-06-14T19:09:30;3.83;;;2.00;;